sensor_id;sensor_type;location;lat;lon;timestamp;P1;durP1;ratioP1;P2;durP2;ratioP2
58685;SDS011;44465;53.206;-6.106;2023-08-01T00:00:00;2.17;;;1.20;;
58685;SDS011;44465;53.206;-6.106;2023-08-01T00:02:26;1.45;;;0.98;;
58685;SDS011;44465;53.206;-6.106;2023-08-01T00:04:51;4.03;;;0.95;;
58685;SDS011;44465;53.206;-6.106;2023-08-01T00:07:21;2.17;;;0.90;;
58685;SDS011;44465;53.206;-6.106;2023-08-01T00:09:47;1.77;;;0.80;;
58685;SDS011;44465;53.206;-6.106;2023-08-01T00:12:12;2.05;;;1.17;;
58685;SDS011;44465;53.206;-6.106;2023-08-01T00:14:41;2.05;;;1.13;;
58685;SDS011;44465;53.206;-6.106;2023-08-01T00:17:06;2.00;;;0.90;;
58685;SDS011;44465;53.206;-6.106;2023-08-01T00:19:32;2.45;;;0.93;;
58685;SDS011;44465;53.206;-6.106;2023-08-01T00:21:57;4.13;;;1.23;;
58685;SDS011;44465;53.206;-6.106;2023-08-01T00:24:23;2.25;;;0.90;;
58685;SDS011;44465;53.206;-6.106;2023-08-01T00:26:48;3.25;;;1.10;;
58685;SDS011;44465;53.206;-6.106;2023-08-01T00:29:14;1.75;;;1.20;;
58685;SDS011;44465;53.206;-6.106;2023-08-01T00:31:39;1.67;;;1.25;;
58685;SDS011;44465;53.206;-6.106;2023-08-01T00:34:05;1.92;;;0.88;;
58685;SDS011;44465;53.206;-6.106;2023-08-01T00:36:30;1.73;;;0.77;;
58685;SDS011;44465;53.206;-6.106;2023-08-01T00:38:56;1.80;;;0.95;;
58685;SDS011;44465;53.206;-6.106;2023-08-01T00:41:21;1.67;;;0.90;;
58685;SDS011;44465;53.206;-6.106;2023-08-01T00:43:47;2.05;;;0.82;;
58685;SDS011;44465;53.206;-6.106;2023-08-01T00:46:13;2.05;;;0.90;;
58685;SDS011;44465;53.206;-6.106;2023-08-01T00:48:38;1.10;;;0.80;;
58685;SDS011;44465;53.206;-6.106;2023-08-01T00:51:04;3.33;;;0.70;;
58685;SDS011;44465;53.206;-6.106;2023-08-01T00:53:32;2.33;;;0.90;;
58685;SDS011;44465;53.206;-6.106;2023-08-01T00:55:58;1.75;;;1.08;;
58685;SDS011;44465;53.206;-6.106;2023-08-01T00:58:24;2.53;;;0.90;;
58685;SDS011;44465;53.206;-6.106;2023-08-01T01:00:50;1.02;;;0.80;;
58685;SDS011;44465;53.206;-6.106;2023-08-01T01:03:16;2.20;;;1.20;;
58685;SDS011;44465;53.206;-6.106;2023-08-01T01:06:30;2.10;;;1.25;;
58685;SDS011;44465;53.206;-6.106;2023-08-01T01:08:36;2.75;;;0.95;;
58685;SDS011;44465;53.206;-6.106;2023-08-01T01:11:02;1.85;;;0.55;;
58685;SDS011;44465;53.206;-6.106;2023-08-01T01:13:30;2.78;;;0.90;;
58685;SDS011;44465;53.206;-6.106;2023-08-01T01:15:57;2.13;;;0.77;;
58685;SDS011;44465;53.206;-6.106;2023-08-01T01:18:23;2.58;;;0.95;;
58685;SDS011;44465;53.206;-6.106;2023-08-01T01:20:48;2.05;;;1.10;;
58685;SDS011;44465;53.206;-6.106;2023-08-01T01:23:14;1.50;;;0.90;;
58685;SDS011;44465;53.206;-6.106;2023-08-01T01:25:39;0.95;;;0.90;;
58685;SDS011;44465;53.206;-6.106;2023-08-01T01:28:06;3.13;;;0.93;;
58685;SDS011;44465;53.206;-6.106;2023-08-01T01:30:32;2.97;;;0.65;;
58685;SDS011;44465;53.206;-6.106;2023-08-01T01:32:59;1.83;;;1.17;;
58685;SDS011;44465;53.206;-6.106;2023-08-01T01:35:25;0.80;;;0.80;;
58685;SDS011;44465;53.206;-6.106;2023-08-01T01:37:51;1.17;;;0.73;;
58685;SDS011;44465;53.206;-6.106;2023-08-01T01:40:16;0.98;;;0.90;;
58685;SDS011;44465;53.206;-6.106;2023-08-01T01:42:42;1.02;;;0.68;;
58685;SDS011;44465;53.206;-6.106;2023-08-01T01:45:08;1.45;;;0.85;;
58685;SDS011;44465;53.206;-6.106;2023-08-01T01:47:34;1.70;;;0.85;;
58685;SDS011;44465;53.206;-6.106;2023-08-01T01:49:59;2.53;;;0.77;;
58685;SDS011;44465;53.206;-6.106;2023-08-01T01:52:25;1.30;;;0.80;;
58685;SDS011;44465;53.206;-6.106;2023-08-01T01:54:50;1.73;;;0.70;;
58685;SDS011;44465;53.206;-6.106;2023-08-01T01:57:16;2.28;;;0.98;;
58685;SDS011;44465;53.206;-6.106;2023-08-01T01:59:41;1.23;;;0.80;;
58685;SDS011;44465;53.206;-6.106;2023-08-01T02:02:07;0.73;;;0.70;;
58685;SDS011;44465;53.206;-6.106;2023-08-01T02:04:32;2.17;;;1.10;;
58685;SDS011;44465;53.206;-6.106;2023-08-01T02:06:58;1.60;;;0.70;;
58685;SDS011;44465;53.206;-6.106;2023-08-01T02:09:23;1.08;;;0.70;;
58685;SDS011;44465;53.206;-6.106;2023-08-01T02:11:49;1.20;;;0.98;;
58685;SDS011;44465;53.206;-6.106;2023-08-01T02:14:15;2.45;;;1.20;;
58685;SDS011;44465;53.206;-6.106;2023-08-01T02:16:41;1.63;;;0.90;;
58685;SDS011;44465;53.206;-6.106;2023-08-01T02:19:08;1.27;;;0.82;;
58685;SDS011;44465;53.206;-6.106;2023-08-01T02:21:33;0.98;;;0.80;;
58685;SDS011;44465;53.206;-6.106;2023-08-01T02:23:59;0.75;;;0.50;;
58685;SDS011;44465;53.206;-6.106;2023-08-01T02:26:25;1.20;;;0.77;;
58685;SDS011;44465;53.206;-6.106;2023-08-01T02:28:51;2.73;;;0.87;;
58685;SDS011;44465;53.206;-6.106;2023-08-01T02:31:16;0.73;;;0.68;;
58685;SDS011;44465;53.206;-6.106;2023-08-01T02:33:42;1.85;;;1.23;;
58685;SDS011;44465;53.206;-6.106;2023-08-01T02:36:07;2.95;;;1.10;;
58685;SDS011;44465;53.206;-6.106;2023-08-01T02:38:33;0.95;;;0.70;;
58685;SDS011;44465;53.206;-6.106;2023-08-01T02:40:58;3.42;;;0.85;;
58685;SDS011;44465;53.206;-6.106;2023-08-01T02:43:24;1.42;;;0.90;;
58685;SDS011;44465;53.206;-6.106;2023-08-01T02:45:49;1.70;;;1.13;;
58685;SDS011;44465;53.206;-6.106;2023-08-01T02:48:16;1.10;;;0.80;;
58685;SDS011;44465;53.206;-6.106;2023-08-01T02:50:41;1.15;;;0.80;;
58685;SDS011;44465;53.206;-6.106;2023-08-01T02:53:07;0.85;;;0.60;;
58685;SDS011;44465;53.206;-6.106;2023-08-01T02:55:32;1.17;;;0.88;;
58685;SDS011;44465;53.206;-6.106;2023-08-01T02:57:58;2.25;;;0.63;;
58685;SDS011;44465;53.206;-6.106;2023-08-01T03:00:24;1.80;;;0.88;;
58685;SDS011;44465;53.206;-6.106;2023-08-01T03:02:50;1.87;;;0.83;;
58685;SDS011;44465;53.206;-6.106;2023-08-01T03:05:16;1.02;;;0.90;;
58685;SDS011;44465;53.206;-6.106;2023-08-01T03:07:42;2.20;;;0.65;;
58685;SDS011;44465;53.206;-6.106;2023-08-01T03:10:08;1.40;;;0.95;;
58685;SDS011;44465;53.206;-6.106;2023-08-01T03:12:36;1.17;;;0.95;;
58685;SDS011;44465;53.206;-6.106;2023-08-01T03:15:02;0.80;;;0.80;;
58685;SDS011;44465;53.206;-6.106;2023-08-01T03:17:28;1.38;;;0.85;;
58685;SDS011;44465;53.206;-6.106;2023-08-01T03:19:54;1.45;;;0.80;;
58685;SDS011;44465;53.206;-6.106;2023-08-01T03:22:19;1.83;;;0.80;;
58685;SDS011;44465;53.206;-6.106;2023-08-01T03:24:45;0.90;;;0.75;;
58685;SDS011;44465;53.206;-6.106;2023-08-01T03:27:10;1.80;;;0.80;;
58685;SDS011;44465;53.206;-6.106;2023-08-01T03:29:36;2.05;;;0.77;;
58685;SDS011;44465;53.206;-6.106;2023-08-01T03:32:01;0.80;;;0.77;;
58685;SDS011;44465;53.206;-6.106;2023-08-01T03:34:29;0.50;;;0.50;;
58685;SDS011;44465;53.206;-6.106;2023-08-01T03:36:54;0.95;;;0.82;;
58685;SDS011;44465;53.206;-6.106;2023-08-01T03:39:20;1.23;;;0.90;;
58685;SDS011;44465;53.206;-6.106;2023-08-01T03:41:45;1.13;;;1.00;;
58685;SDS011;44465;53.206;-6.106;2023-08-01T03:44:11;1.15;;;0.70;;
58685;SDS011;44465;53.206;-6.106;2023-08-01T03:46:36;0.95;;;0.70;;
58685;SDS011;44465;53.206;-6.106;2023-08-01T03:49:02;2.60;;;0.80;;
58685;SDS011;44465;53.206;-6.106;2023-08-01T03:51:27;1.00;;;0.70;;
58685;SDS011;44465;53.206;-6.106;2023-08-01T03:53:53;0.63;;;0.60;;
58685;SDS011;44465;53.206;-6.106;2023-08-01T03:56:19;0.70;;;0.65;;
58685;SDS011;44465;53.206;-6.106;2023-08-01T03:58:44;1.00;;;0.90;;
58685;SDS011;44465;53.206;-6.106;2023-08-01T04:01:10;1.08;;;0.60;;
58685;SDS011;44465;53.206;-6.106;2023-08-01T04:03:36;0.80;;;0.60;;
58685;SDS011;44465;53.206;-6.106;2023-08-01T04:06:02;1.00;;;0.68;;
58685;SDS011;44465;53.206;-6.106;2023-08-01T04:08:28;0.85;;;0.70;;
58685;SDS011;44465;53.206;-6.106;2023-08-01T04:10:53;1.42;;;0.90;;
58685;SDS011;44465;53.206;-6.106;2023-08-01T04:13:19;0.60;;;0.52;;
58685;SDS011;44465;53.206;-6.106;2023-08-01T04:15:44;0.70;;;0.70;;
58685;SDS011;44465;53.206;-6.106;2023-08-01T04:18:10;1.00;;;0.60;;
58685;SDS011;44465;53.206;-6.106;2023-08-01T04:20:35;0.90;;;0.60;;
58685;SDS011;44465;53.206;-6.106;2023-08-01T04:23:01;1.63;;;0.82;;
58685;SDS011;44465;53.206;-6.106;2023-08-01T04:25:26;0.65;;;0.50;;
58685;SDS011;44465;53.206;-6.106;2023-08-01T04:27:52;0.68;;;0.60;;
58685;SDS011;44465;53.206;-6.106;2023-08-01T04:30:18;1.92;;;1.00;;
58685;SDS011;44465;53.206;-6.106;2023-08-01T04:32:44;1.25;;;0.90;;
58685;SDS011;44465;53.206;-6.106;2023-08-01T04:35:09;1.00;;;0.80;;
58685;SDS011;44465;53.206;-6.106;2023-08-01T04:37:35;1.20;;;0.68;;
58685;SDS011;44465;53.206;-6.106;2023-08-01T04:40:01;0.80;;;0.70;;
58685;SDS011;44465;53.206;-6.106;2023-08-01T04:42:27;1.23;;;0.70;;
58685;SDS011;44465;53.206;-6.106;2023-08-01T04:44:52;0.60;;;0.55;;
58685;SDS011;44465;53.206;-6.106;2023-08-01T04:47:18;1.02;;;0.60;;
58685;SDS011;44465;53.206;-6.106;2023-08-01T04:49:44;1.00;;;0.70;;
58685;SDS011;44465;53.206;-6.106;2023-08-01T04:52:09;0.63;;;0.40;;
58685;SDS011;44465;53.206;-6.106;2023-08-01T04:54:35;0.70;;;0.70;;
58685;SDS011;44465;53.206;-6.106;2023-08-01T04:57:00;0.75;;;0.75;;
58685;SDS011;44465;53.206;-6.106;2023-08-01T04:59:26;1.25;;;0.82;;
58685;SDS011;44465;53.206;-6.106;2023-08-01T05:01:51;1.50;;;0.88;;
58685;SDS011;44465;53.206;-6.106;2023-08-01T05:04:17;1.13;;;0.70;;
58685;SDS011;44465;53.206;-6.106;2023-08-01T05:06:42;0.70;;;0.70;;
58685;SDS011;44465;53.206;-6.106;2023-08-01T05:09:08;1.80;;;0.70;;
58685;SDS011;44465;53.206;-6.106;2023-08-01T05:11:34;1.10;;;0.60;;
58685;SDS011;44465;53.206;-6.106;2023-08-01T05:13:59;1.05;;;0.70;;
58685;SDS011;44465;53.206;-6.106;2023-08-01T05:16:25;1.48;;;0.70;;
58685;SDS011;44465;53.206;-6.106;2023-08-01T05:18:50;0.68;;;0.60;;
58685;SDS011;44465;53.206;-6.106;2023-08-01T05:21:16;1.45;;;0.77;;
58685;SDS011;44465;53.206;-6.106;2023-08-01T05:23:41;0.50;;;0.50;;
58685;SDS011;44465;53.206;-6.106;2023-08-01T05:26:07;0.85;;;0.60;;
58685;SDS011;44465;53.206;-6.106;2023-08-01T05:28:32;0.85;;;0.50;;
58685;SDS011;44465;53.206;-6.106;2023-08-01T05:30:58;1.00;;;0.75;;
58685;SDS011;44465;53.206;-6.106;2023-08-01T05:33:24;0.60;;;0.60;;
58685;SDS011;44465;53.206;-6.106;2023-08-01T05:35:49;1.08;;;0.60;;
58685;SDS011;44465;53.206;-6.106;2023-08-01T05:38:15;0.57;;;0.57;;
58685;SDS011;44465;53.206;-6.106;2023-08-01T05:40:41;0.93;;;0.65;;
58685;SDS011;44465;53.206;-6.106;2023-08-01T05:43:06;1.13;;;0.55;;
58685;SDS011;44465;53.206;-6.106;2023-08-01T05:45:36;1.70;;;0.60;;
58685;SDS011;44465;53.206;-6.106;2023-08-01T05:48:02;1.48;;;0.82;;
58685;SDS011;44465;53.206;-6.106;2023-08-01T05:50:27;0.90;;;0.52;;
58685;SDS011;44465;53.206;-6.106;2023-08-01T05:52:53;1.33;;;0.60;;
58685;SDS011;44465;53.206;-6.106;2023-08-01T05:55:18;0.90;;;0.65;;
58685;SDS011;44465;53.206;-6.106;2023-08-01T05:57:44;1.85;;;0.90;;
58685;SDS011;44465;53.206;-6.106;2023-08-01T06:00:10;1.35;;;0.73;;
58685;SDS011;44465;53.206;-6.106;2023-08-01T06:02:39;1.10;;;0.60;;
58685;SDS011;44465;53.206;-6.106;2023-08-01T06:05:06;2.15;;;0.73;;
58685;SDS011;44465;53.206;-6.106;2023-08-01T06:07:31;0.60;;;0.60;;
58685;SDS011;44465;53.206;-6.106;2023-08-01T06:09:57;0.43;;;0.43;;
58685;SDS011;44465;53.206;-6.106;2023-08-01T06:12:22;0.85;;;0.52;;
58685;SDS011;44465;53.206;-6.106;2023-08-01T06:14:48;0.90;;;0.70;;
58685;SDS011;44465;53.206;-6.106;2023-08-01T06:17:14;2.20;;;0.70;;
58685;SDS011;44465;53.206;-6.106;2023-08-01T06:19:40;0.98;;;0.63;;
58685;SDS011;44465;53.206;-6.106;2023-08-01T06:22:06;0.77;;;0.77;;
58685;SDS011;44465;53.206;-6.106;2023-08-01T06:24:32;1.25;;;0.80;;
58685;SDS011;44465;53.206;-6.106;2023-08-01T06:26:58;1.45;;;0.82;;
58685;SDS011;44465;53.206;-6.106;2023-08-01T06:29:23;2.17;;;0.50;;
58685;SDS011;44465;53.206;-6.106;2023-08-01T06:31:50;1.70;;;0.80;;
58685;SDS011;44465;53.206;-6.106;2023-08-01T06:34:15;1.92;;;0.90;;
58685;SDS011;44465;53.206;-6.106;2023-08-01T06:36:41;0.63;;;0.50;;
58685;SDS011;44465;53.206;-6.106;2023-08-01T06:39:07;0.60;;;0.60;;
58685;SDS011;44465;53.206;-6.106;2023-08-01T06:41:32;0.45;;;0.45;;
58685;SDS011;44465;53.206;-6.106;2023-08-01T06:43:58;0.70;;;0.60;;
58685;SDS011;44465;53.206;-6.106;2023-08-01T06:46:23;1.10;;;0.70;;
58685;SDS011;44465;53.206;-6.106;2023-08-01T06:48:49;0.68;;;0.60;;
58685;SDS011;44465;53.206;-6.106;2023-08-01T06:51:14;1.63;;;0.50;;
58685;SDS011;44465;53.206;-6.106;2023-08-01T06:53:40;1.08;;;0.82;;
58685;SDS011;44465;53.206;-6.106;2023-08-01T06:56:05;1.40;;;0.68;;
58685;SDS011;44465;53.206;-6.106;2023-08-01T06:58:31;0.52;;;0.52;;
58685;SDS011;44465;53.206;-6.106;2023-08-01T07:00:56;0.50;;;0.40;;
58685;SDS011;44465;53.206;-6.106;2023-08-01T07:03:22;0.88;;;0.60;;
58685;SDS011;44465;53.206;-6.106;2023-08-01T07:05:49;0.43;;;0.43;;
58685;SDS011;44465;53.206;-6.106;2023-08-01T07:08:15;0.90;;;0.50;;
58685;SDS011;44465;53.206;-6.106;2023-08-01T07:10:40;0.95;;;0.60;;
58685;SDS011;44465;53.206;-6.106;2023-08-01T07:13:06;1.02;;;0.60;;
58685;SDS011;44465;53.206;-6.106;2023-08-01T07:15:32;1.10;;;0.70;;
58685;SDS011;44465;53.206;-6.106;2023-08-01T07:17:58;0.60;;;0.50;;
58685;SDS011;44465;53.206;-6.106;2023-08-01T07:20:24;0.88;;;0.50;;
58685;SDS011;44465;53.206;-6.106;2023-08-01T07:22:49;1.80;;;0.70;;
58685;SDS011;44465;53.206;-6.106;2023-08-01T07:25:15;0.75;;;0.70;;
58685;SDS011;44465;53.206;-6.106;2023-08-01T07:27:41;0.85;;;0.77;;
58685;SDS011;44465;53.206;-6.106;2023-08-01T07:30:07;0.80;;;0.50;;
58685;SDS011;44465;53.206;-6.106;2023-08-01T07:32:33;0.55;;;0.55;;
58685;SDS011;44465;53.206;-6.106;2023-08-01T07:35:00;0.60;;;0.50;;
58685;SDS011;44465;53.206;-6.106;2023-08-01T07:37:25;0.50;;;0.47;;
58685;SDS011;44465;53.206;-6.106;2023-08-01T07:39:53;1.60;;;0.55;;
58685;SDS011;44465;53.206;-6.106;2023-08-01T07:42:20;1.23;;;0.70;;
58685;SDS011;44465;53.206;-6.106;2023-08-01T07:44:45;0.88;;;0.55;;
58685;SDS011;44465;53.206;-6.106;2023-08-01T07:47:10;0.63;;;0.60;;
58685;SDS011;44465;53.206;-6.106;2023-08-01T07:49:36;0.52;;;0.52;;
58685;SDS011;44465;53.206;-6.106;2023-08-01T07:52:01;0.75;;;0.47;;
58685;SDS011;44465;53.206;-6.106;2023-08-01T07:54:27;1.13;;;0.60;;
58685;SDS011;44465;53.206;-6.106;2023-08-01T07:56:52;1.27;;;0.55;;
58685;SDS011;44465;53.206;-6.106;2023-08-01T07:59:18;1.58;;;0.70;;
58685;SDS011;44465;53.206;-6.106;2023-08-01T08:01:43;0.70;;;0.50;;
58685;SDS011;44465;53.206;-6.106;2023-08-01T08:04:09;1.20;;;0.80;;
58685;SDS011;44465;53.206;-6.106;2023-08-01T08:06:35;2.17;;;0.60;;
58685;SDS011;44465;53.206;-6.106;2023-08-01T08:09:02;1.33;;;0.50;;
58685;SDS011;44465;53.206;-6.106;2023-08-01T08:11:28;1.65;;;0.65;;
58685;SDS011;44465;53.206;-6.106;2023-08-01T08:13:53;1.02;;;0.50;;
58685;SDS011;44465;53.206;-6.106;2023-08-01T08:16:19;0.60;;;0.60;;
58685;SDS011;44465;53.206;-6.106;2023-08-01T08:18:44;1.75;;;0.80;;
58685;SDS011;44465;53.206;-6.106;2023-08-01T08:21:10;1.45;;;0.50;;
58685;SDS011;44465;53.206;-6.106;2023-08-01T08:23:35;1.50;;;0.57;;
58685;SDS011;44465;53.206;-6.106;2023-08-01T08:26:01;1.10;;;0.70;;
58685;SDS011;44465;53.206;-6.106;2023-08-01T08:28:27;0.52;;;0.40;;
58685;SDS011;44465;53.206;-6.106;2023-08-01T08:30:55;0.55;;;0.55;;
58685;SDS011;44465;53.206;-6.106;2023-08-01T08:33:20;0.85;;;0.50;;
58685;SDS011;44465;53.206;-6.106;2023-08-01T08:35:46;0.77;;;0.77;;
58685;SDS011;44465;53.206;-6.106;2023-08-01T08:38:12;1.15;;;0.60;;
58685;SDS011;44465;53.206;-6.106;2023-08-01T08:40:39;0.77;;;0.47;;
58685;SDS011;44465;53.206;-6.106;2023-08-01T08:43:08;0.95;;;0.88;;
58685;SDS011;44465;53.206;-6.106;2023-08-01T08:45:34;0.95;;;0.70;;
58685;SDS011;44465;53.206;-6.106;2023-08-01T08:48:01;0.30;;;0.30;;
58685;SDS011;44465;53.206;-6.106;2023-08-01T08:50:32;0.50;;;0.50;;
58685;SDS011;44465;53.206;-6.106;2023-08-01T08:52:58;0.55;;;0.50;;
58685;SDS011;44465;53.206;-6.106;2023-08-01T08:55:25;0.90;;;0.50;;
58685;SDS011;44465;53.206;-6.106;2023-08-01T08:57:52;0.32;;;0.30;;
58685;SDS011;44465;53.206;-6.106;2023-08-01T09:00:18;0.70;;;0.47;;
58685;SDS011;44465;53.206;-6.106;2023-08-01T09:02:45;1.08;;;0.50;;
58685;SDS011;44465;53.206;-6.106;2023-08-01T09:05:11;0.45;;;0.32;;
58685;SDS011;44465;53.206;-6.106;2023-08-01T09:07:39;0.83;;;0.80;;
58685;SDS011;44465;53.206;-6.106;2023-08-01T09:10:07;0.45;;;0.45;;
58685;SDS011;44465;53.206;-6.106;2023-08-01T09:12:36;0.40;;;0.40;;
58685;SDS011;44465;53.206;-6.106;2023-08-01T09:15:02;0.40;;;0.40;;
58685;SDS011;44465;53.206;-6.106;2023-08-01T09:17:27;0.93;;;0.63;;
58685;SDS011;44465;53.206;-6.106;2023-08-01T09:20:05;0.90;;;0.55;;
58685;SDS011;44465;53.206;-6.106;2023-08-01T09:22:41;0.55;;;0.47;;
58685;SDS011;44465;53.206;-6.106;2023-08-01T09:25:10;0.50;;;0.50;;
58685;SDS011;44465;53.206;-6.106;2023-08-01T09:27:37;1.47;;;0.40;;
58685;SDS011;44465;53.206;-6.106;2023-08-01T09:30:09;0.30;;;0.30;;
58685;SDS011;44465;53.206;-6.106;2023-08-01T09:32:38;0.70;;;0.60;;
58685;SDS011;44465;53.206;-6.106;2023-08-01T09:35:04;0.57;;;0.55;;
58685;SDS011;44465;53.206;-6.106;2023-08-01T09:37:40;1.75;;;0.82;;
58685;SDS011;44465;53.206;-6.106;2023-08-01T09:40:07;0.40;;;0.40;;
58685;SDS011;44465;53.206;-6.106;2023-08-01T09:42:38;0.70;;;0.60;;
58685;SDS011;44465;53.206;-6.106;2023-08-01T09:45:13;0.45;;;0.40;;
58685;SDS011;44465;53.206;-6.106;2023-08-01T09:47:40;0.80;;;0.30;;
58685;SDS011;44465;53.206;-6.106;2023-08-01T09:50:09;0.70;;;0.60;;
58685;SDS011;44465;53.206;-6.106;2023-08-01T09:52:36;0.47;;;0.45;;
58685;SDS011;44465;53.206;-6.106;2023-08-01T09:55:02;1.40;;;0.43;;
58685;SDS011;44465;53.206;-6.106;2023-08-01T09:57:31;0.30;;;0.30;;
58685;SDS011;44465;53.206;-6.106;2023-08-01T09:59:57;0.98;;;0.50;;
58685;SDS011;44465;53.206;-6.106;2023-08-01T10:02:24;1.20;;;0.57;;
58685;SDS011;44465;53.206;-6.106;2023-08-01T10:04:57;0.40;;;0.40;;
58685;SDS011;44465;53.206;-6.106;2023-08-01T10:07:25;0.40;;;0.40;;
58685;SDS011;44465;53.206;-6.106;2023-08-01T10:09:57;0.93;;;0.50;;
58685;SDS011;44465;53.206;-6.106;2023-08-01T10:12:24;0.43;;;0.30;;
58685;SDS011;44465;53.206;-6.106;2023-08-01T10:14:51;0.55;;;0.30;;
58685;SDS011;44465;53.206;-6.106;2023-08-01T10:17:21;0.93;;;0.40;;
58685;SDS011;44465;53.206;-6.106;2023-08-01T10:19:49;0.30;;;0.30;;
58685;SDS011;44465;53.206;-6.106;2023-08-01T10:22:16;0.95;;;0.50;;
58685;SDS011;44465;53.206;-6.106;2023-08-01T10:24:43;0.43;;;0.43;;
58685;SDS011;44465;53.206;-6.106;2023-08-01T10:27:20;0.45;;;0.43;;
58685;SDS011;44465;53.206;-6.106;2023-08-01T10:29:56;0.57;;;0.47;;
58685;SDS011;44465;53.206;-6.106;2023-08-01T10:32:36;0.57;;;0.40;;
58685;SDS011;44465;53.206;-6.106;2023-08-01T10:35:03;0.65;;;0.40;;
58685;SDS011;44465;53.206;-6.106;2023-08-01T10:37:43;0.38;;;0.32;;
58685;SDS011;44465;53.206;-6.106;2023-08-01T10:40:12;0.60;;;0.60;;
58685;SDS011;44465;53.206;-6.106;2023-08-01T10:42:41;0.60;;;0.43;;
58685;SDS011;44465;53.206;-6.106;2023-08-01T10:45:20;12.07;;;1.40;;
58685;SDS011;44465;53.206;-6.106;2023-08-01T10:47:49;1.17;;;0.50;;
58685;SDS011;44465;53.206;-6.106;2023-08-01T10:50:17;2.20;;;0.40;;
58685;SDS011;44465;53.206;-6.106;2023-08-01T10:52:43;4.10;;;1.05;;
58685;SDS011;44465;53.206;-6.106;2023-08-01T10:55:09;1.40;;;0.68;;
58685;SDS011;44465;53.206;-6.106;2023-08-01T10:57:36;1.65;;;0.65;;
58685;SDS011;44465;53.206;-6.106;2023-08-01T11:00:04;1.45;;;0.57;;
58685;SDS011;44465;53.206;-6.106;2023-08-01T11:02:34;2.53;;;0.70;;
58685;SDS011;44465;53.206;-6.106;2023-08-01T11:05:01;9.70;;;1.25;;
58685;SDS011;44465;53.206;-6.106;2023-08-01T11:07:29;3.97;;;1.10;;
58685;SDS011;44465;53.206;-6.106;2023-08-01T11:10:04;12.45;;;1.70;;
58685;SDS011;44465;53.206;-6.106;2023-08-01T11:12:33;7.53;;;1.90;;
58685;SDS011;44465;53.206;-6.106;2023-08-01T11:14:59;20.75;;;1.77;;
58685;SDS011;44465;53.206;-6.106;2023-08-01T11:17:26;2.05;;;1.10;;
58685;SDS011;44465;53.206;-6.106;2023-08-01T11:19:51;9.15;;;1.55;;
58685;SDS011;44465;53.206;-6.106;2023-08-01T11:22:25;6.15;;;1.17;;
58685;SDS011;44465;53.206;-6.106;2023-08-01T11:24:50;6.65;;;1.48;;
58685;SDS011;44465;53.206;-6.106;2023-08-01T11:27:16;6.50;;;1.00;;
58685;SDS011;44465;53.206;-6.106;2023-08-01T11:29:41;9.90;;;1.60;;
58685;SDS011;44465;53.206;-6.106;2023-08-01T11:32:07;4.80;;;1.27;;
58685;SDS011;44465;53.206;-6.106;2023-08-01T11:34:39;3.10;;;1.08;;
58685;SDS011;44465;53.206;-6.106;2023-08-01T11:37:10;2.58;;;1.05;;
58685;SDS011;44465;53.206;-6.106;2023-08-01T11:39:36;6.28;;;1.58;;
58685;SDS011;44465;53.206;-6.106;2023-08-01T11:42:02;4.10;;;1.25;;
58685;SDS011;44465;53.206;-6.106;2023-08-01T11:44:28;5.38;;;1.05;;
58685;SDS011;44465;53.206;-6.106;2023-08-01T11:46:55;4.07;;;1.00;;
58685;SDS011;44465;53.206;-6.106;2023-08-01T11:49:21;1.33;;;0.65;;
58685;SDS011;44465;53.206;-6.106;2023-08-01T11:51:46;1.23;;;0.65;;
58685;SDS011;44465;53.206;-6.106;2023-08-01T11:54:13;2.22;;;0.88;;
58685;SDS011;44465;53.206;-6.106;2023-08-01T11:56:39;3.13;;;0.63;;
58685;SDS011;44465;53.206;-6.106;2023-08-01T11:59:16;2.67;;;0.73;;
58685;SDS011;44465;53.206;-6.106;2023-08-01T12:01:43;2.75;;;0.80;;
58685;SDS011;44465;53.206;-6.106;2023-08-01T12:06:35;2.38;;;0.55;;
58685;SDS011;44465;53.206;-6.106;2023-08-01T12:09:06;1.77;;;0.50;;
58685;SDS011;44465;53.206;-6.106;2023-08-01T12:11:39;5.55;;;0.95;;
58685;SDS011;44465;53.206;-6.106;2023-08-01T12:16:32;5.93;;;1.10;;
58685;SDS011;44465;53.206;-6.106;2023-08-01T12:18:57;8.65;;;1.58;;
58685;SDS011;44465;53.206;-6.106;2023-08-01T12:21:23;5.38;;;1.08;;
58685;SDS011;44465;53.206;-6.106;2023-08-01T12:23:49;8.13;;;1.15;;
58685;SDS011;44465;53.206;-6.106;2023-08-01T12:26:14;5.38;;;1.75;;
58685;SDS011;44465;53.206;-6.106;2023-08-01T12:28:40;6.68;;;1.40;;
58685;SDS011;44465;53.206;-6.106;2023-08-01T12:31:05;4.50;;;1.00;;
58685;SDS011;44465;53.206;-6.106;2023-08-01T12:33:32;5.95;;;1.20;;
58685;SDS011;44465;53.206;-6.106;2023-08-01T12:35:58;4.03;;;1.35;;
58685;SDS011;44465;53.206;-6.106;2023-08-01T12:38:27;7.13;;;1.70;;
58685;SDS011;44465;53.206;-6.106;2023-08-01T12:40:53;4.38;;;1.83;;
58685;SDS011;44465;53.206;-6.106;2023-08-01T12:43:18;9.63;;;2.83;;
58685;SDS011;44465;53.206;-6.106;2023-08-01T12:45:44;14.13;;;2.40;;
58685;SDS011;44465;53.206;-6.106;2023-08-01T12:48:11;10.57;;;2.95;;
58685;SDS011;44465;53.206;-6.106;2023-08-01T12:50:36;13.98;;;3.03;;
58685;SDS011;44465;53.206;-6.106;2023-08-01T12:53:02;12.27;;;2.40;;
58685;SDS011;44465;53.206;-6.106;2023-08-01T12:55:28;8.30;;;2.53;;
58685;SDS011;44465;53.206;-6.106;2023-08-01T12:57:54;9.32;;;2.00;;
58685;SDS011;44465;53.206;-6.106;2023-08-01T13:00:19;10.52;;;2.17;;
58685;SDS011;44465;53.206;-6.106;2023-08-01T13:02:45;7.20;;;2.75;;
58685;SDS011;44465;53.206;-6.106;2023-08-01T13:05:12;4.85;;;2.15;;
58685;SDS011;44465;53.206;-6.106;2023-08-01T13:07:38;10.32;;;3.03;;
58685;SDS011;44465;53.206;-6.106;2023-08-01T13:10:03;10.75;;;2.85;;
58685;SDS011;44465;53.206;-6.106;2023-08-01T13:12:29;6.18;;;2.95;;
58685;SDS011;44465;53.206;-6.106;2023-08-01T13:14:54;6.15;;;2.85;;
58685;SDS011;44465;53.206;-6.106;2023-08-01T13:17:20;9.60;;;2.67;;
58685;SDS011;44465;53.206;-6.106;2023-08-01T13:19:45;7.43;;;3.10;;
58685;SDS011;44465;53.206;-6.106;2023-08-01T13:22:11;11.57;;;3.45;;
58685;SDS011;44465;53.206;-6.106;2023-08-01T13:24:36;7.13;;;3.05;;
58685;SDS011;44465;53.206;-6.106;2023-08-01T13:27:02;8.88;;;3.67;;
58685;SDS011;44465;53.206;-6.106;2023-08-01T13:29:28;8.48;;;3.38;;
58685;SDS011;44465;53.206;-6.106;2023-08-01T13:31:53;10.70;;;3.45;;
58685;SDS011;44465;53.206;-6.106;2023-08-01T13:34:19;10.18;;;2.85;;
58685;SDS011;44465;53.206;-6.106;2023-08-01T13:36:44;5.82;;;3.40;;
58685;SDS011;44465;53.206;-6.106;2023-08-01T13:39:10;7.38;;;3.58;;
58685;SDS011;44465;53.206;-6.106;2023-08-01T13:41:35;7.13;;;3.35;;
58685;SDS011;44465;53.206;-6.106;2023-08-01T13:44:01;6.20;;;2.90;;
58685;SDS011;44465;53.206;-6.106;2023-08-01T13:46:27;8.63;;;3.10;;
58685;SDS011;44465;53.206;-6.106;2023-08-01T13:48:52;5.95;;;3.20;;
58685;SDS011;44465;53.206;-6.106;2023-08-01T13:51:18;9.50;;;3.67;;
58685;SDS011;44465;53.206;-6.106;2023-08-01T13:53:43;10.50;;;3.78;;
58685;SDS011;44465;53.206;-6.106;2023-08-01T13:56:09;8.00;;;3.60;;
58685;SDS011;44465;53.206;-6.106;2023-08-01T13:58:36;7.25;;;3.65;;
58685;SDS011;44465;53.206;-6.106;2023-08-01T14:01:06;6.25;;;3.67;;
58685;SDS011;44465;53.206;-6.106;2023-08-01T14:03:33;6.82;;;3.63;;
58685;SDS011;44465;53.206;-6.106;2023-08-01T14:06:09;5.78;;;3.63;;
58685;SDS011;44465;53.206;-6.106;2023-08-01T14:11:06;5.95;;;3.60;;
58685;SDS011;44465;53.206;-6.106;2023-08-01T14:13:33;6.90;;;3.33;;
58685;SDS011;44465;53.206;-6.106;2023-08-01T14:15:59;7.10;;;3.92;;
58685;SDS011;44465;53.206;-6.106;2023-08-01T14:18:30;7.30;;;3.85;;
58685;SDS011;44465;53.206;-6.106;2023-08-01T14:20:56;8.05;;;4.20;;
58685;SDS011;44465;53.206;-6.106;2023-08-01T14:23:22;6.97;;;3.75;;
58685;SDS011;44465;53.206;-6.106;2023-08-01T14:25:47;8.18;;;4.20;;
58685;SDS011;44465;53.206;-6.106;2023-08-01T14:28:13;8.25;;;4.88;;
58685;SDS011;44465;53.206;-6.106;2023-08-01T14:30:39;7.45;;;4.10;;
58685;SDS011;44465;53.206;-6.106;2023-08-01T14:33:07;7.82;;;4.25;;
58685;SDS011;44465;53.206;-6.106;2023-08-01T14:35:37;6.82;;;4.20;;